Terminal Aerodrome Forecast
Issued by NWS Midland/Odessa, TX

Home | Current Version | Previous Version | Text Only | Print | Product List | Glossary On
Versions: 1 2 3 4 5 6 7 8 9 10 11 12
018
FTUS44 KMAF 251122
TAFMAF
TAF
KMAF 251122Z 2512/2612 36017KT P6SM FEW250
     FM251700 03016G22KT P6SM FEW250
     FM252200 04009KT P6SM FEW250=

USA.gov is the U.S. government's official web portal to all federal, state and local government web resources and services.